createdAt,value
2017-10-25T00:00:09.726Z,99.90
2017-10-25T00:05:13.698Z,99.90
2017-10-25T00:10:16.897Z,99.90
2017-10-25T00:15:20.070Z,99.90
2017-10-25T00:20:23.281Z,99.90
2017-10-25T00:25:26.514Z,99.90
2017-10-25T00:30:29.727Z,99.90
2017-10-25T00:35:32.935Z,99.90
2017-10-25T00:40:36.128Z,99.90
2017-10-25T00:45:39.324Z,99.90
2017-10-25T00:50:42.572Z,99.90
2017-10-25T00:55:45.756Z,99.90
2017-10-25T01:00:48.966Z,99.90
2017-10-25T01:05:52.149Z,99.90
2017-10-25T01:10:55.334Z,99.90
2017-10-25T01:15:59.314Z,99.90
2017-10-25T01:21:02.502Z,99.90
2017-10-25T01:26:05.694Z,99.90
2017-10-25T01:31:08.871Z,99.90
2017-10-25T01:36:12.865Z,99.90
2017-10-25T01:41:16.045Z,99.90
2017-10-25T01:46:19.375Z,99.90
2017-10-25T01:51:22.567Z,99.90
2017-10-25T01:56:25.738Z,99.90
2017-10-25T02:01:29.670Z,99.90
2017-10-25T02:06:32.858Z,99.90
2017-10-25T02:11:36.794Z,99.90
2017-10-25T02:16:40.106Z,99.90
2017-10-25T02:21:43.465Z,99.90
2017-10-25T02:26:46.817Z,99.90
2017-10-25T02:31:50.869Z,99.90
2017-10-25T02:36:54.075Z,99.90
2017-10-25T02:41:57.285Z,99.90
2017-10-25T02:47:00.482Z,99.90
2017-10-25T02:52:03.691Z,99.90
2017-10-25T02:57:06.960Z,99.90
2017-10-25T03:02:10.184Z,99.90
2017-10-25T03:07:13.396Z,99.90
2017-10-25T03:12:17.357Z,99.90
2017-10-25T03:17:20.535Z,99.90
2017-10-25T03:22:23.763Z,99.90
2017-10-25T03:27:26.995Z,99.90
2017-10-25T03:32:30.269Z,99.90
2017-10-25T03:37:33.665Z,99.90
2017-10-25T03:42:37.644Z,99.90
2017-10-25T03:47:40.839Z,99.90
2017-10-25T03:52:44.189Z,99.90
2017-10-25T03:57:48.152Z,99.90
2017-10-25T04:02:51.332Z,99.90
2017-10-25T04:07:54.556Z,99.90
2017-10-25T04:12:57.759Z,99.90
2017-10-25T04:18:00.903Z,99.90
2017-10-25T04:23:04.113Z,99.90
2017-10-25T04:28:07.539Z,99.90
2017-10-25T04:33:10.769Z,99.90
2017-10-25T04:38:14.769Z,99.90
2017-10-25T04:43:17.957Z,99.90
2017-10-25T04:48:21.146Z,99.90
2017-10-25T04:53:24.369Z,99.90
2017-10-25T04:58:27.573Z,99.90
2017-10-25T05:03:30.793Z,99.90
2017-10-25T05:08:34.032Z,99.90
2017-10-25T05:13:37.982Z,99.90
2017-10-25T05:18:41.310Z,99.90
2017-10-25T05:23:44.950Z,99.90
2017-10-25T05:28:48.252Z,99.90
2017-10-25T05:33:51.433Z,99.90
2017-10-25T05:38:54.602Z,99.90
2017-10-25T05:43:58.550Z,99.90
2017-10-25T05:49:01.737Z,99.90
2017-10-25T05:54:05.800Z,99.90
2017-10-25T05:59:09.058Z,99.90
2017-10-25T06:04:12.261Z,99.90
2017-10-25T06:09:16.397Z,99.90
2017-10-25T06:14:20.355Z,99.90
2017-10-25T06:19:23.558Z,99.90
2017-10-25T06:24:26.759Z,99.90
2017-10-25T06:29:30.070Z,99.90
2017-10-25T06:34:33.285Z,99.90
2017-10-25T06:39:36.473Z,99.90
2017-10-25T06:44:39.650Z,99.90
2017-10-25T06:49:42.823Z,99.90
2017-10-25T06:54:46.005Z,99.90
2017-10-25T06:59:49.189Z,99.90
2017-10-25T07:04:53.137Z,99.90
2017-10-25T07:09:56.986Z,99.90
2017-10-25T07:15:00.190Z,99.90
2017-10-25T07:20:03.497Z,99.90
2017-10-25T07:25:06.701Z,99.90
2017-10-25T07:30:10.086Z,99.90
2017-10-25T07:35:13.276Z,99.90
2017-10-25T07:40:17.214Z,99.90
2017-10-25T07:45:20.425Z,99.90
2017-10-25T07:50:23.670Z,99.90
2017-10-25T07:55:26.902Z,99.90
2017-10-25T08:00:30.935Z,99.90
2017-10-25T08:05:34.907Z,99.90
2017-10-25T08:10:38.112Z,99.90
2017-10-25T08:15:41.319Z,99.90
2017-10-25T08:20:44.534Z,99.90
2017-10-25T08:25:47.718Z,99.90
2017-10-25T08:30:50.924Z,99.90
2017-10-25T08:35:54.100Z,99.90
2017-10-25T08:40:58.065Z,99.90
2017-10-25T08:46:01.377Z,99.90
2017-10-25T08:51:04.577Z,99.90
2017-10-25T08:56:07.742Z,99.90
2017-10-25T09:01:11.709Z,99.90
2017-10-25T09:06:14.899Z,99.90
2017-10-25T09:11:18.249Z,99.90
2017-10-25T09:16:21.439Z,99.90
2017-10-25T09:21:24.651Z,99.90
2017-10-25T09:26:27.940Z,99.90
2017-10-25T09:31:32.120Z,99.90
2017-10-25T09:36:35.467Z,99.90
2017-10-25T09:41:38.669Z,99.90
2017-10-25T09:46:41.910Z,99.90
2017-10-25T09:51:45.086Z,99.90
2017-10-25T09:56:48.274Z,99.90
2017-10-25T10:01:51.566Z,99.90
2017-10-25T10:06:54.774Z,99.90
2017-10-25T10:11:58.015Z,99.90
2017-10-25T10:17:01.962Z,97.50
2017-10-25T10:22:05.141Z,97.50
2017-10-25T10:27:08.320Z,98.10
2017-10-25T10:32:11.714Z,97.50
2017-10-25T10:37:14.843Z,98.40
2017-10-25T10:42:18.803Z,97.00
2017-10-25T10:47:22.256Z,97.00
2017-10-25T10:52:25.451Z,96.80
2017-10-25T10:57:28.654Z,94.90
2017-10-25T11:02:32.199Z,92.30
2017-10-25T11:07:35.380Z,93.40
2017-10-25T11:12:38.556Z,92.60
2017-10-25T11:17:48.781Z,90.60
2017-10-25T11:22:51.970Z,86.20
2017-10-25T11:27:56.882Z,84.50
2017-10-25T11:33:00.866Z,86.80
2017-10-25T11:38:04.899Z,90.90
2017-10-25T11:43:08.849Z,88.90
2017-10-25T11:48:12.041Z,88.90
2017-10-25T11:53:15.327Z,87.90
2017-10-25T11:58:18.688Z,86.60
2017-10-25T12:03:21.862Z,88.10
2017-10-25T12:08:25.814Z,83.70
2017-10-25T12:13:29.053Z,83.70
2017-10-25T12:18:32.451Z,80.20
2017-10-25T12:23:35.676Z,79.80
2017-10-25T12:28:38.890Z,75.60
2017-10-25T12:33:42.059Z,73.40
2017-10-25T12:38:45.244Z,71.00
2017-10-25T12:43:48.469Z,71.90
2017-10-25T12:48:51.667Z,71.10
2017-10-25T12:53:54.863Z,70.60
2017-10-25T12:58:58.185Z,69.20
2017-10-25T13:04:01.415Z,70.90
2017-10-25T13:09:04.659Z,71.90
2017-10-25T13:14:22.379Z,69.30
2017-10-25T13:19:25.618Z,69.20
2017-10-25T13:24:28.822Z,70.10
2017-10-25T13:29:32.027Z,69.00
2017-10-25T13:34:35.294Z,67.50
2017-10-25T13:39:38.486Z,69.70
2017-10-25T13:44:41.680Z,71.90
2017-10-25T13:49:45.086Z,73.30
2017-10-25T13:54:48.316Z,72.20
2017-10-25T13:59:51.539Z,73.30
2017-10-25T14:04:54.749Z,73.10
2017-10-25T14:09:57.920Z,74.50
2017-10-25T14:15:01.110Z,73.60
2017-10-25T14:20:04.311Z,75.60
2017-10-25T14:25:08.286Z,74.90
2017-10-25T14:30:11.460Z,74.80
2017-10-25T14:35:14.679Z,76.80
2017-10-25T14:40:17.869Z,77.00
2017-10-25T14:45:21.103Z,77.00
2017-10-25T14:50:24.320Z,77.50
2017-10-25T14:55:27.476Z,77.80
2017-10-25T15:00:30.685Z,76.90
2017-10-25T15:05:34.651Z,77.60
2017-10-25T15:10:37.996Z,77.60
2017-10-25T15:15:41.281Z,78.70
2017-10-25T15:20:44.512Z,80.60
2017-10-25T15:25:47.794Z,80.20
2017-10-25T15:30:51.188Z,81.10
2017-10-25T15:35:54.432Z,83.50
2017-10-25T15:40:57.686Z,81.60
2017-10-25T15:46:00.899Z,82.40
2017-10-25T15:51:04.114Z,83.40
2017-10-25T15:56:07.286Z,83.90
2017-10-25T16:01:11.381Z,86.00
2017-10-25T16:06:14.633Z,86.00
2017-10-25T16:11:18.665Z,89.40
2017-10-25T16:16:21.984Z,89.40
2017-10-25T16:21:25.192Z,89.40
2017-10-25T16:26:28.465Z,88.90
2017-10-25T16:31:32.347Z,91.20
2017-10-25T16:36:35.508Z,91.30
2017-10-25T16:41:38.849Z,92.50
2017-10-25T16:46:42.134Z,93.00
2017-10-25T16:51:45.301Z,93.70
2017-10-25T16:56:49.275Z,94.70
2017-10-25T17:01:52.445Z,94.50
2017-10-25T17:06:55.690Z,95.60
2017-10-25T17:11:58.889Z,96.00
2017-10-25T17:17:02.097Z,96.90
2017-10-25T17:22:05.234Z,97.10
2017-10-25T17:27:08.752Z,98.00
2017-10-25T17:32:12.000Z,99.20
2017-10-25T17:37:16.026Z,99.90
2017-10-25T17:42:19.935Z,99.90
2017-10-25T17:47:23.863Z,99.90
2017-10-25T17:52:27.923Z,99.90
2017-10-25T17:57:31.165Z,99.90
2017-10-25T18:02:34.545Z,99.90
2017-10-25T18:07:37.774Z,99.90
2017-10-25T18:12:40.951Z,99.90
2017-10-25T18:17:44.187Z,99.90
2017-10-25T18:22:47.401Z,99.90
2017-10-25T18:27:50.614Z,99.90
2017-10-25T18:32:53.867Z,99.90
2017-10-25T18:37:57.148Z,99.90
2017-10-25T18:43:00.401Z,99.90
2017-10-25T18:48:04.072Z,99.90
2017-10-25T18:53:07.283Z,99.90
2017-10-25T18:58:11.325Z,99.90
2017-10-25T19:03:14.700Z,99.90
2017-10-25T19:08:17.897Z,99.90
2017-10-25T19:13:21.139Z,99.90
2017-10-25T19:18:25.155Z,99.90
2017-10-25T19:23:28.384Z,99.90
2017-10-25T19:28:32.338Z,99.90
2017-10-25T19:33:35.605Z,99.90
2017-10-25T19:38:39.591Z,99.90
2017-10-25T19:43:42.780Z,99.90
2017-10-25T19:48:46.121Z,99.90
2017-10-25T19:53:49.324Z,99.90
2017-10-25T19:58:52.612Z,99.90
2017-10-25T20:03:55.830Z,99.90
2017-10-25T20:08:59.072Z,99.90
2017-10-25T20:14:02.272Z,99.90
2017-10-25T20:19:06.473Z,99.90
2017-10-25T20:24:09.780Z,99.90
2017-10-25T20:29:13.116Z,99.90
2017-10-25T20:34:16.398Z,99.90
2017-10-25T20:39:19.634Z,99.90
2017-10-25T20:44:23.017Z,99.90
2017-10-25T20:49:26.254Z,99.90
2017-10-25T20:54:29.466Z,99.90
2017-10-25T20:59:32.882Z,99.90
2017-10-25T21:04:36.959Z,99.90
2017-10-25T21:09:40.161Z,99.90
2017-10-25T21:14:43.364Z,99.90
2017-10-25T21:19:46.656Z,99.90
2017-10-25T21:24:49.871Z,99.90
2017-10-25T21:29:53.098Z,99.90
2017-10-25T21:34:56.345Z,99.90
2017-10-25T21:40:00.426Z,99.90
2017-10-25T21:45:03.652Z,99.90
2017-10-25T21:50:06.861Z,99.90
2017-10-25T21:55:10.146Z,99.90
2017-10-25T22:00:13.356Z,99.90
2017-10-25T22:05:16.534Z,99.90
2017-10-25T22:10:19.772Z,99.90
2017-10-25T22:15:22.962Z,99.90
2017-10-25T22:20:26.156Z,99.90
2017-10-25T22:25:29.366Z,99.90
2017-10-25T22:30:32.585Z,99.90
2017-10-25T22:35:35.776Z,99.90
2017-10-25T22:40:39.123Z,99.90
2017-10-25T22:45:42.325Z,99.90
2017-10-25T22:50:45.537Z,99.90
2017-10-25T22:55:48.830Z,99.90
2017-10-25T23:00:52.011Z,99.90
2017-10-25T23:05:55.202Z,99.90
2017-10-25T23:10:59.214Z,99.90
2017-10-25T23:16:03.158Z,99.90
2017-10-25T23:21:06.593Z,99.90
2017-10-25T23:26:09.780Z,99.90
2017-10-25T23:31:13.037Z,99.90
2017-10-25T23:36:16.251Z,99.90
2017-10-25T23:41:19.450Z,99.90
2017-10-25T23:46:22.653Z,99.90
2017-10-25T23:51:25.877Z,99.90
2017-10-25T23:56:29.219Z,99.90
